Time;durP1;ratioP1;P1;durP2;ratioP2;P2;SDS_P1;SDS_P2;PMS_P1;PMS_P2;Temp;Humidity;BMP_temperature;BMP_pressure;BME280_temperature;BME280_humidity;BME280_pressure;Samples;Min_cycle;Max_cycle;Signal;HPM_P1;HPM_P2
2022/03/16 00:00:04;;;;;;;;;;;;;;;17.67;57.16;99967.28;2096740;28;19932;-54
2022/03/16 00:01:04;;;;;;;;;;;;;;;17.68;57.21;99966.28;2098992;28;19935;-53
2022/03/16 00:02:06;;;;;;;;;;;;;;;17.65;57.04;99965.59;2100124;28;19966;-54
2022/03/16 00:03:08;;;;;;;;;;;;;;;17.65;57.25;99960.22;2097831;28;19928;-53
2022/03/16 00:04:08;;;;;;;;;;;;;;;17.64;57.14;99960.41;2098580;28;19928;-56
2022/03/16 00:05:10;;;;;;;;;;;;;;;17.65;57.21;99967.44;2098164;28;19928;-54
2022/03/16 00:06:12;;;;;;;;;;;;;;;17.63;57.18;99964.09;2096732;28;20406;-51
2022/03/16 00:07:13;;;;;;;;;;;;;;;17.63;57.17;99966.75;2097038;28;19928;-54
2022/03/16 00:08:14;;;;;;;;;;;;;;;17.62;57.13;99963.25;2095571;28;19932;-54
2022/03/16 00:09:15;;;;;;;;;;;;;;;17.62;57.34;99970.47;2099914;28;19928;-57
2022/03/16 00:10:17;;;;;;;;;;;;;;;17.61;57.09;99966.94;2099710;28;19928;-54
2022/03/16 00:11:17;;;;;;;;;;;;;;;17.61;57.26;99966.94;2093099;28;20609;-51
2022/03/16 00:12:19;;;;;;;;;;;;;;;17.61;57.29;99960.75;2097672;28;19936;-52
2022/03/16 00:13:19;;;;;;;;;;;;;;;17.60;57.30;99962.56;2100015;28;20342;-56
2022/03/16 00:14:21;;;;;;;;;;;;;;;17.61;57.23;99963.44;2099796;28;20006;-54
2022/03/16 00:15:24;;;;;;;;;;;;;;;17.59;57.16;99955.53;2097973;28;19931;-56
2022/03/16 00:16:24;;;;;;;;;;;;;;;17.58;57.24;99951.19;2098621;28;19924;-51
2022/03/16 00:17:26;;;;;;;;;;;;;;;17.58;57.21;99947.66;2099144;28;19928;-54
2022/03/16 00:18:26;;;;;;;;;;;;;;;17.59;57.26;99949.34;2097932;28;20011;-54
2022/03/16 00:19:28;;;;;;;;;;;;;;;17.57;57.24;99944.13;2098877;28;19930;-56
2022/03/16 00:20:28;;;;;;;;;;;;;;;17.57;57.15;99940.59;2095033;28;20205;-55
2022/03/16 00:21:31;;;;;;;;;;;;;;;17.55;57.21;99943.47;2096287;28;20509;-52
2022/03/16 00:22:32;;;;;;;;;;;;;;;17.55;57.25;99940.78;2100366;28;20390;-55
2022/03/16 00:23:34;;;;;;;;;;;;;;;17.54;57.21;99936.41;2099789;28;20015;-54
2022/03/16 00:24:34;;;;;;;;;;;;;;;17.54;57.32;99938.25;2091797;28;19976;-52
2022/03/16 00:25:36;;;;;;;;;;;;;;;17.54;57.46;99941.78;2099731;28;19936;-55
2022/03/16 00:26:36;;;;;;;;;;;;;;;17.54;57.29;99938.25;2099916;28;19931;-54
2022/03/16 00:27:38;;;;;;;;;;;;;;;17.54;57.38;99938.25;2098782;28;19924;-53
2022/03/16 00:28:38;;;;;;;;;;;;;;;17.52;57.34;99941.09;2098960;28;19932;-56
2022/03/16 00:29:40;;;;;;;;;;;;;;;17.53;57.41;99939.28;2097494;28;19924;-55
2022/03/16 00:30:40;;;;;;;;;;;;;;;17.52;57.31;99940.25;2097885;28;19924;-57
2022/03/16 00:31:42;;;;;;;;;;;;;;;17.51;57.34;99936.72;2099931;28;20287;-54
2022/03/16 00:32:42;;;;;;;;;;;;;;;17.52;57.34;99934.88;2098908;28;20024;-55
2022/03/16 00:33:44;;;;;;;;;;;;;;;17.50;57.41;99931.56;2094550;28;19950;-57
2022/03/16 00:34:44;;;;;;;;;;;;;;;17.49;57.43;99925.31;2098000;28;20089;-53
2022/03/16 00:35:46;;;;;;;;;;;;;;;17.49;57.37;99930.69;2099691;28;20397;-53
2022/03/16 00:36:48;;;;;;;;;;;;;;;17.48;57.52;99926.34;2099492;28;19924;-54
2022/03/16 00:37:50;;;;;;;;;;;;;;;17.48;57.36;99923.66;2100877;28;19967;-55
2022/03/16 00:38:50;;;;;;;;;;;;;;;17.48;57.32;99929.03;2099658;28;20023;-56
2022/03/16 00:39:52;;;;;;;;;;;;;;;17.48;57.52;99926.34;2099114;28;19931;-53
2022/03/16 00:40:52;;;;;;;;;;;;;;;17.46;57.44;99922.97;2099464;28;19924;-53
2022/03/16 00:41:54;;;;;;;;;;;;;;;17.46;57.34;99925.66;2097167;28;19931;-53
2022/03/16 00:42:54;;;;;;;;;;;;;;;17.45;57.38;99924.00;2097214;28;20294;-54
2022/03/16 00:43:56;;;;;;;;;;;;;;;17.44;57.45;99914.28;2099683;28;19924;-52
2022/03/16 00:44:56;;;;;;;;;;;;;;;17.44;57.65;99922.31;2099917;28;20363;-57
2022/03/16 00:45:58;;;;;;;;;;;;;;;17.42;57.59;99906.38;2098882;28;19985;-54
2022/03/16 00:46:59;;;;;;;;;;;;;;;17.41;57.62;99907.41;2099821;28;19932;-53
2022/03/16 00:48:00;;;;;;;;;;;;;;;17.41;57.62;99909.22;2100931;28;19924;-55
2022/03/16 00:49:01;;;;;;;;;;;;;;;17.40;57.49;99905.69;2099488;28;19936;-54
2022/03/16 00:50:02;;;;;;;;;;;;;;;17.40;57.58;99897.66;2094669;28;19924;-54
2022/03/16 00:51:03;;;;;;;;;;;;;;;17.40;57.53;99904.88;2100959;28;20671;-51
2022/03/16 00:52:06;;;;;;;;;;;;;;;17.41;57.57;99906.53;2101155;28;20023;-58
2022/03/16 00:53:07;;;;;;;;;;;;;;;17.39;57.51;99901.34;2101120;28;19935;-54
2022/03/16 00:54:08;;;;;;;;;;;;;;;17.39;57.48;99909.41;2100805;28;19924;-56
2022/03/16 00:55:09;;;;;;;;;;;;;;;17.39;57.46;99909.41;2101204;28;19943;-53
2022/03/16 00:56:10;;;;;;;;;;;;;;;17.38;57.49;99898.81;2104095;28;19928;-53
2022/03/16 00:57:11;;;;;;;;;;;;;;;17.37;57.47;99895.31;2102240;28;20015;-55
2022/03/16 00:58:12;;;;;;;;;;;;;;;17.37;57.39;99889.94;2092317;28;19928;-56
2022/03/16 00:59:13;;;;;;;;;;;;;;;17.37;57.50;99883.75;2099265;28;19928;-53
2022/03/16 01:00:15;;;;;;;;;;;;;;;17.37;57.53;99886.41;2097405;28;20031;-52
2022/03/16 01:01:15;;;;;;;;;;;;;;;17.36;57.52;99887.44;2097079;28;19924;-51
2022/03/16 01:02:17;;;;;;;;;;;;;;;17.35;57.59;99886.56;2099011;28;20345;-55
2022/03/16 01:03:17;;;;;;;;;;;;;;;17.34;57.44;99878.72;2097871;28;19952;-52
2022/03/16 01:04:19;;;;;;;;;;;;;;;17.35;57.48;99885.75;2098199;28;19931;-54
2022/03/16 01:05:20;;;;;;;;;;;;;;;17.33;57.51;99877.88;2099147;28;19943;-55
2022/03/16 01:06:21;;;;;;;;;;;;;;;17.33;57.53;99877.03;2098533;28;20232;-53
2022/03/16 01:07:23;;;;;;;;;;;;;;;17.32;57.41;99878.88;2092761;28;19940;-55
2022/03/16 01:08:25;;;;;;;;;;;;;;;17.32;57.47;99880.72;2100118;28;20456;-55
2022/03/16 01:09:25;;;;;;;;;;;;;;;17.31;57.47;99873.69;2099101;28;20302;-52
2022/03/16 01:10:27;;;;;;;;;;;;;;;17.31;57.50;99884.41;2088746;28;19928;-55
2022/03/16 01:11:28;;;;;;;;;;;;;;;17.32;57.43;99880.72;2098661;28;20244;-56
2022/03/16 01:12:29;;;;;;;;;;;;;;;17.30;57.53;99875.53;2099661;28;20428;-55
2022/03/16 01:13:30;;;;;;;;;;;;;;;17.29;57.35;99881.88;2097611;28;19958;-53
2022/03/16 01:14:31;;;;;;;;;;;;;;;17.29;57.58;99878.38;2099386;28;19950;-55
2022/03/16 01:15:32;;;;;;;;;;;;;;;17.28;57.56;99874.84;2098686;28;20014;-52
2022/03/16 01:16:35;;;;;;;;;;;;;;;17.28;57.60;99879.38;2098842;28;19928;-53
2022/03/16 01:17:35;;;;;;;;;;;;;;;17.28;57.56;99879.38;2099604;28;20062;-53
2022/03/16 01:18:37;;;;;;;;;;;;;;;17.27;57.57;99878.50;2092712;28;20134;-56
2022/03/16 01:19:38;;;;;;;;;;;;;;;17.26;57.50;99870.66;2098720;28;20436;-54
2022/03/16 01:20:39;;;;;;;;;;;;;;;17.27;57.64;99877.69;2099155;28;19932;-59
2022/03/16 01:21:40;;;;;;;;;;;;;;;17.25;57.63;99867.13;2098007;28;19949;-53
2022/03/16 01:22:43;;;;;;;;;;;;;;;17.26;57.60;99873.34;2100016;28;19928;-53
2022/03/16 01:23:44;;;;;;;;;;;;;;;17.24;57.46;99867.28;2092678;28;19928;-55
2022/03/16 01:24:45;;;;;;;;;;;;;;;17.23;57.43;99860.25;2098864;28;20558;-54
2022/03/16 01:25:46;;;;;;;;;;;;;;;17.23;57.51;99860.25;2099409;28;19928;-54
2022/03/16 01:26:47;;;;;;;;;;;;;;;17.22;57.61;99858.56;2097654;28;19928;-56
2022/03/16 01:27:48;;;;;;;;;;;;;;;17.22;57.71;99863.91;2100233;28;19928;-52
2022/03/16 01:28:49;;;;;;;;;;;;;;;17.20;57.58;99851.53;2099147;28;19932;-56
2022/03/16 01:29:50;;;;;;;;;;;;;;;17.19;57.59;99855.22;2098315;28;19928;-54
2022/03/16 01:30:51;;;;;;;;;;;;;;;17.19;57.67;99857.06;2100742;28;20177;-56
2022/03/16 01:31:52;;;;;;;;;;;;;;;17.19;57.60;99854.41;2099622;28;20119;-55
2022/03/16 01:32:53;;;;;;;;;;;;;;;17.18;57.66;99848.16;2096124;28;20273;-55
2022/03/16 01:33:54;;;;;;;;;;;;;;;17.17;57.61;99856.41;2098977;28;19924;-53
2022/03/16 01:34:56;;;;;;;;;;;;;;;17.18;57.56;99855.38;2100163;28;19928;-52
2022/03/16 01:35:56;;;;;;;;;;;;;;;17.16;57.60;99852.88;2099858;28;19931;-54
2022/03/16 01:36:58;;;;;;;;;;;;;;;17.15;57.63;99848.50;2098125;28;20382;-55
2022/03/16 01:38:00;;;;;;;;;;;;;;;17.16;57.61;99850.19;2099155;28;20436;-52
2022/03/16 01:39:01;;;;;;;;;;;;;;;17.15;57.58;99848.50;2100165;28;19977;-54
2022/03/16 01:40:03;;;;;;;;;;;;;;;17.13;57.67;99847.84;2097532;28;20286;-54
2022/03/16 01:41:04;;;;;;;;;;;;;;;17.14;57.54;99846.84;2096572;28;20023;-53
2022/03/16 01:42:05;;;;;;;;;;;;;;;17.12;57.52;99838.09;2096382;28;19935;-55
2022/03/16 01:43:07;;;;;;;;;;;;;;;17.12;57.53;99840.78;2098614;28;19983;-52
2022/03/16 01:44:07;;;;;;;;;;;;;;;17.11;57.57;99841.81;2100334;28;19928;-55
2022/03/16 01:45:10;;;;;;;;;;;;;;;17.11;57.70;99840.97;2096312;28;19928;-53
2022/03/16 01:46:10;;;;;;;;;;;;;;;17.11;57.70;99836.44;2098937;28;19928;-54
2022/03/16 01:47:12;;;;;;;;;;;;;;;17.10;57.72;99840.09;2099900;28;20362;-53
2022/03/16 01:48:13;;;;;;;;;;;;;;;17.09;57.78;99833.09;2097744;28;20007;-55
2022/03/16 01:49:14;;;;;;;;;;;;;;;17.09;57.66;99829.56;2093920;28;19943;-51
2022/03/16 01:50:15;;;;;;;;;;;;;;;17.08;57.69;99831.41;2096091;28;19960;-53
2022/03/16 01:51:16;;;;;;;;;;;;;;;17.08;57.77;99831.41;2099354;28;20469;-51
2022/03/16 01:52:19;;;;;;;;;;;;;;;17.08;57.70;99828.72;2100421;28;20011;-54
2022/03/16 01:53:24;;;;;;;;;;;;;;;17.08;57.67;99830.59;2097391;28;19981;-55
2022/03/16 01:54:25;;;;;;;;;;;;;;;17.06;57.63;99830.72;2098455;28;19931;-51
2022/03/16 01:55:26;;;;;;;;;;;;;;;17.06;57.58;99833.41;2099419;28;20452;-57
2022/03/16 01:56:27;;;;;;;;;;;;;;;17.05;57.71;99839.78;2100128;28;20291;-53
2022/03/16 01:57:28;;;;;;;;;;;;;;;17.05;57.67;99834.44;2094125;28;19924;-55
2022/03/16 01:58:29;;;;;;;;;;;;;;;17.05;57.75;99830.88;2099543;28;19973;-54
2022/03/16 01:59:31;;;;;;;;;;;;;;;17.04;57.63;99831.91;2091771;27;20386;-55
2022/03/16 02:00:32;;;;;;;;;;;;;;;17.03;57.65;99830.22;2096086;28;19947;-54
2022/03/16 02:01:33;;;;;;;;;;;;;;;17.03;57.85;99838.28;2098660;28;19932;-55
2022/03/16 02:02:35;;;;;;;;;;;;;;;17.01;57.63;99833.06;2098681;28;19924;-53
2022/03/16 02:03:35;;;;;;;;;;;;;;;17.01;57.66;99824.19;2096990;28;20298;-54
2022/03/16 02:04:37;;;;;;;;;;;;;;;17.00;57.76;99823.34;2099318;28;19928;-55
2022/03/16 02:05:39;;;;;;;;;;;;;;;17.01;57.77;99825.03;2098621;28;19951;-55
2022/03/16 02:06:39;;;;;;;;;;;;;;;17.00;57.76;99823.34;2095325;28;20307;-52
2022/03/16 02:07:41;;;;;;;;;;;;;;;17.00;57.80;99822.53;2093575;28;19934;-55
2022/03/16 02:08:45;;;;;;;;;;;;;;;16.98;57.70;99820.81;2099653;28;19928;-55
2022/03/16 02:09:46;;;;;;;;;;;;;;;16.98;57.77;99826.19;2098436;28;19942;-55
2022/03/16 02:10:47;;;;;;;;;;;;;;;16.98;57.86;99826.19;2096866;28;19924;-56
2022/03/16 02:11:49;;;;;;;;;;;;;;;16.97;57.73;99824.53;2091393;28;20222;-53
2022/03/16 02:12:50;;;;;;;;;;;;;;;16.96;57.76;99820.13;2099715;28;20299;-54
2022/03/16 02:13:52;;;;;;;;;;;;;;;16.96;57.87;99820.13;2097107;28;19932;-56
2022/03/16 02:14:52;;;;;;;;;;;;;;;16.96;57.91;99819.31;2096365;28;20236;-53
2022/03/16 02:15:54;;;;;;;;;;;;;;;16.95;57.79;99818.47;2097977;28;19924;-56
2022/03/16 02:16:56;;;;;;;;;;;;;;;16.94;57.83;99819.50;2097058;28;20193;-52
2022/03/16 02:17:58;;;;;;;;;;;;;;;16.95;57.82;99820.31;2096928;28;19924;-54
2022/03/16 02:18:58;;;;;;;;;;;;;;;16.93;57.84;99811.59;2099331;28;19932;-53
2022/03/16 02:20:00;;;;;;;;;;;;;;;16.93;57.83;99811.59;2095012;28;20329;-55
2022/03/16 02:21:03;;;;;;;;;;;;;;;16.93;57.86;99806.25;2095155;28;20462;-55
2022/03/16 02:22:04;;;;;;;;;;;;;;;16.91;57.73;99813.59;2097710;28;20202;-54
2022/03/16 02:23:08;;;;;;;;;;;;;;;16.92;58.00;99809.94;2100122;28;20321;-56
2022/03/16 02:24:08;;;;;;;;;;;;;;;16.92;57.86;99812.63;2096486;28;19932;-56
2022/03/16 02:25:10;;;;;;;;;;;;;;;16.90;57.85;99806.56;2097890;28;19924;-55
2022/03/16 02:26:12;;;;;;;;;;;;;;;16.91;57.90;99808.25;2098279;28;19935;-56
2022/03/16 02:27:13;;;;;;;;;;;;;;;16.88;57.77;99809.44;2092901;28;20081;-54
2022/03/16 02:28:14;;;;;;;;;;;;;;;16.89;57.83;99810.25;2098847;28;19935;-52
2022/03/16 02:29:15;;;;;;;;;;;;;;;16.88;57.87;99805.88;2099742;28;20540;-52
2022/03/16 02:30:16;;;;;;;;;;;;;;;16.87;57.79;99813.09;2093582;28;19968;-54
2022/03/16 02:31:18;;;;;;;;;;;;;;;16.86;57.86;99808.75;2098362;28;19932;-57
2022/03/16 02:32:18;;;;;;;;;;;;;;;16.86;57.87;99806.06;2096484;28;19924;-57
2022/03/16 02:33:20;;;;;;;;;;;;;;;16.86;57.89;99806.06;2098633;28;20365;-53
2022/03/16 02:34:20;;;;;;;;;;;;;;;16.85;58.07;99808.91;2098611;28;19946;-56
2022/03/16 02:35:22;;;;;;;;;;;;;;;16.85;57.88;99804.38;2099058;28;20347;-57
2022/03/16 02:36:23;;;;;;;;;;;;;;;16.84;57.85;99808.06;2092912;28;20234;-54
2022/03/16 02:37:24;;;;;;;;;;;;;;;16.84;57.89;99808.06;2097953;28;20488;-53
2022/03/16 02:38:26;;;;;;;;;;;;;;;16.84;57.94;99807.22;2098533;28;19928;-54
2022/03/16 02:39:28;;;;;;;;;;;;;;;16.84;57.89;99812.59;2098577;28;19985;-57
2022/03/16 02:40:29;;;;;;;;;;;;;;;16.83;58.01;99819.78;2098280;28;20032;-59
2022/03/16 02:41:30;;;;;;;;;;;;;;;16.82;57.95;99809.22;2099479;28;20377;-56
2022/03/16 02:42:31;;;;;;;;;;;;;;;16.82;57.94;99814.59;2097007;28;19935;-59
2022/03/16 02:43:32;;;;;;;;;;;;;;;16.80;57.88;99809.41;2098967;28;19950;-59
2022/03/16 02:44:33;;;;;;;;;;;;;;;16.80;57.88;99806.72;2092626;28;19967;-58
2022/03/16 02:45:34;;;;;;;;;;;;;;;16.80;57.92;99812.09;2097496;28;20271;-52
2022/03/16 02:46:35;;;;;;;;;;;;;;;16.79;57.97;99804.19;2098533;28;19999;-55
2022/03/16 02:47:38;;;;;;;;;;;;;;;16.79;58.00;99807.72;2097523;28;19928;-57
2022/03/16 02:48:39;;;;;;;;;;;;;;;16.79;57.96;99806.88;2096465;27;20723;-59
2022/03/16 02:49:40;;;;;;;;;;;;;;;16.78;57.94;99813.25;2089904;28;19929;-55
2022/03/16 02:50:41;;;;;;;;;;;;;;;16.77;57.93;99800.84;2090824;28;19964;-53
2022/03/16 02:51:43;;;;;;;;;;;;;;;16.76;58.03;99805.31;2088723;28;19929;-56
2022/03/16 02:52:43;;;;;;;;;;;;;;;16.75;57.93;99799.13;2091542;28;20236;-54
2022/03/16 02:53:46;;;;;;;;;;;;;;;16.75;57.98;99801.81;2091156;28;20369;-55
2022/03/16 02:54:47;;;;;;;;;;;;;;;16.74;58.03;99808.19;2085457;28;19970;-58
2022/03/16 02:55:49;;;;;;;;;;;;;;;16.73;57.96;99811.84;2090258;28;19968;-58
2022/03/16 02:56:49;;;;;;;;;;;;;;;16.73;58.06;99798.44;2092807;28;20318;-54
2022/03/16 02:57:51;;;;;;;;;;;;;;;16.73;57.92;99811.84;2086547;28;20070;-59
2022/03/16 02:58:51;;;;;;;;;;;;;;;16.72;57.92;99796.78;2092906;28;20087;-58
2022/03/16 02:59:53;;;;;;;;;;;;;;;16.73;58.05;99808.34;2087332;28;19975;-58
2022/03/16 03:00:53;;;;;;;;;;;;;;;16.72;58.03;99814.72;2090351;28;19963;-57
2022/03/16 03:01:55;;;;;;;;;;;;;;;16.71;58.10;99803.13;2089985;28;19929;-54
2022/03/16 03:02:55;;;;;;;;;;;;;;;16.71;58.05;99807.66;2090924;28;20086;-58
2022/03/16 03:03:57;;;;;;;;;;;;;;;16.71;58.02;99807.66;2085132;28;20170;-52
2022/03/16 03:04:58;;;;;;;;;;;;;;;16.71;58.05;99818.38;2090652;28;19932;-60
2022/03/16 03:05:59;;;;;;;;;;;;;;;16.71;58.07;99815.69;2090336;28;19932;-52
2022/03/16 03:07:00;;;;;;;;;;;;;;;16.69;58.03;99815.88;2088557;28;19958;-55
2022/03/16 03:08:01;;;;;;;;;;;;;;;16.69;57.96;99815.88;2086119;28;19955;-53
2022/03/16 03:09:03;;;;;;;;;;;;;;;16.68;58.12;99816.03;2090125;28;20236;-58
2022/03/16 03:10:05;;;;;;;;;;;;;;;16.68;58.01;99807.97;2088891;28;19932;-57
2022/03/16 03:11:06;;;;;;;;;;;;;;;16.67;58.18;99807.16;2091706;28;20016;-63
2022/03/16 03:12:08;;;;;;;;;;;;;;;16.67;58.06;99806.31;2088989;28;19933;-52
2022/03/16 03:13:09;;;;;;;;;;;;;;;16.67;58.06;99811.66;2089125;28;19928;-58
2022/03/16 03:14:10;;;;;;;;;;;;;;;16.66;58.09;99810.84;2091469;28;20413;-55
2022/03/16 03:15:13;;;;;;;;;;;;;;;16.66;58.13;99809.97;2088134;28;20406;-54
2022/03/16 03:16:14;;;;;;;;;;;;;;;16.65;58.09;99824.38;2084694;28;19938;-56
2022/03/16 03:17:15;;;;;;;;;;;;;;;16.64;58.18;99807.47;2087593;28;20319;-57
2022/03/16 03:18:16;;;;;;;;;;;;;;;16.64;58.15;99809.31;2089984;28;19928;-57
2022/03/16 03:19:17;;;;;;;;;;;;;;;16.63;58.12;99805.81;2090549;28;20046;-55
2022/03/16 03:20:19;;;;;;;;;;;;;;;16.63;58.09;99810.31;2087358;28;19928;-50
2022/03/16 03:21:20;;;;;;;;;;;;;;;16.62;58.09;99809.47;2088672;28;19928;-55
2022/03/16 03:22:26;;;;;;;;;;;;;;;16.62;58.23;99808.63;2090649;28;19958;-55
2022/03/16 03:23:26;;;;;;;;;;;;;;;16.61;58.13;99813.16;2089799;28;19932;-57
2022/03/16 03:24:29;;;;;;;;;;;;;;;16.62;58.17;99809.47;2091401;28;20374;-59
2022/03/16 03:25:30;;;;;;;;;;;;;;;16.62;58.14;99819.34;2084306;28;20481;-59
2022/03/16 03:26:32;;;;;;;;;;;;;;;16.61;58.23;99812.31;2088980;28;20494;-53
2022/03/16 03:27:33;;;;;;;;;;;;;;;16.60;58.18;99806.09;2092683;28;20044;-53
2022/03/16 03:28:34;;;;;;;;;;;;;;;16.59;58.10;99814.31;2092904;28;20149;-60
2022/03/16 03:29:35;;;;;;;;;;;;;;;16.59;58.19;99820.50;2091377;28;19924;-57
2022/03/16 03:30:36;;;;;;;;;;;;;;;16.58;58.22;99808.13;2090687;28;19935;-55
2022/03/16 03:31:37;;;;;;;;;;;;;;;16.58;58.25;99813.50;2092405;28;19935;-57
2022/03/16 03:32:38;;;;;;;;;;;;;;;16.58;58.18;99816.16;2091473;28;19924;-60
2022/03/16 03:33:39;;;;;;;;;;;;;;;16.58;58.20;99812.66;2088438;28;19932;-52
2022/03/16 03:34:45;;;;;;;;;;;;;;;16.57;58.46;99814.47;2089659;28;19932;-58
2022/03/16 03:35:46;;;;;;;;;;;;;;;16.56;58.25;99812.81;2101164;28;19928;-59
2022/03/16 03:36:47;;;;;;;;;;;;;;;16.56;58.19;99804.75;2101076;28;19930;-56
2022/03/16 03:37:51;;;;;;;;;;;;;;;16.56;58.27;99803.94;2099620;28;19931;-59
2022/03/16 03:38:52;;;;;;;;;;;;;;;16.55;58.25;99808.47;2100398;28;20127;-54
2022/03/16 03:39:54;;;;;;;;;;;;;;;16.54;58.22;99806.75;2098028;28;19925;-62
2022/03/16 03:40:56;;;;;;;;;;;;;;;16.54;58.17;99801.41;2100891;28;19928;-55
2022/03/16 03:41:56;;;;;;;;;;;;;;;16.52;58.28;99796.22;2095063;28;19969;-56
2022/03/16 03:42:58;;;;;;;;;;;;;;;16.53;58.23;99799.72;2100247;28;19924;-54
2022/03/16 03:43:58;;;;;;;;;;;;;;;16.52;58.33;99806.94;2100380;28;22068;-61
2022/03/16 03:45:00;;;;;;;;;;;;;;;16.52;58.20;99798.06;2099652;28;19939;-59
2022/03/16 03:46:00;;;;;;;;;;;;;;;16.52;58.34;99798.06;2100499;28;19936;-55
2022/03/16 03:47:02;;;;;;;;;;;;;;;16.52;58.26;99795.41;2100542;28;20367;-53
2022/03/16 03:48:03;;;;;;;;;;;;;;;16.52;58.25;99803.44;2099032;28;19932;-56
2022/03/16 03:49:05;;;;;;;;;;;;;;;16.51;58.18;99802.56;2101176;28;19928;-58
2022/03/16 03:50:06;;;;;;;;;;;;;;;16.51;58.24;99802.56;2100394;28;19928;-53
2022/03/16 03:51:07;;;;;;;;;;;;;;;16.50;58.29;99805.41;2094281;28;20377;-52
2022/03/16 03:52:08;;;;;;;;;;;;;;;16.50;58.19;99806.25;2100253;28;19928;-53
2022/03/16 03:53:10;;;;;;;;;;;;;;;16.49;58.19;99803.72;2100894;28;19932;-58
2022/03/16 03:54:10;;;;;;;;;;;;;;;16.48;58.32;99802.06;2099251;28;20837;-51
2022/03/16 03:55:13;;;;;;;;;;;;;;;16.48;58.30;99796.69;2101108;28;20459;-52
2022/03/16 03:56:15;;;;;;;;;;;;;;;16.48;58.28;99796.69;2100090;28;20536;-56
2022/03/16 03:57:16;;;;;;;;;;;;;;;16.46;58.28;99794.16;2099573;28;19924;-58
2022/03/16 03:58:17;;;;;;;;;;;;;;;16.47;58.27;99789.69;2100242;28;20069;-53
2022/03/16 03:59:19;;;;;;;;;;;;;;;16.46;58.35;99787.97;2094891;28;19934;-62
2022/03/16 04:00:20;;;;;;;;;;;;;;;16.45;58.22;99792.50;2099559;28;19977;-54
2022/03/16 04:01:22;;;;;;;;;;;;;;;16.45;58.35;99787.16;2100966;28;20545;-54
2022/03/16 04:02:22;;;;;;;;;;;;;;;16.43;58.27;99783.78;2099211;28;19924;-52
2022/03/16 04:03:24;;;;;;;;;;;;;;;16.44;58.31;99792.69;2101078;28;20679;-58
2022/03/16 04:04:24;;;;;;;;;;;;;;;16.44;58.42;99790.84;2100348;28;19935;-57
2022/03/16 04:05:26;;;;;;;;;;;;;;;16.44;58.38;99784.66;2099206;28;19924;-57
2022/03/16 04:06:27;;;;;;;;;;;;;;;16.44;58.25;99792.69;2101239;28;20100;-56
2022/03/16 04:07:28;;;;;;;;;;;;;;;16.43;58.34;99793.66;2101897;28;19958;-54
2022/03/16 04:08:29;;;;;;;;;;;;;;;16.41;58.34;99780.44;2096996;28;19939;-56
2022/03/16 04:09:30;;;;;;;;;;;;;;;16.41;58.33;99790.28;2094472;28;20681;-52
2022/03/16 04:10:32;;;;;;;;;;;;;;;16.41;58.30;99790.28;2099521;28;19936;-62
2022/03/16 04:11:34;;;;;;;;;;;;;;;16.41;58.42;99783.13;2101481;28;19950;-54
2022/03/16 04:12:35;;;;;;;;;;;;;;;16.41;58.43;99790.28;2100242;28;20173;-62
2022/03/16 04:13:36;;;;;;;;;;;;;;;16.40;58.36;99789.47;2101200;28;19931;-50
2022/03/16 04:14:37;;;;;;;;;;;;;;;16.39;58.34;99787.78;2100397;28;20157;-54
2022/03/16 04:15:38;;;;;;;;;;;;;;;16.39;58.31;99781.59;2100501;28;19930;-56
2022/03/16 04:16:39;;;;;;;;;;;;;;;16.38;58.41;99783.44;2091227;28;20406;-58
2022/03/16 04:17:40;;;;;;;;;;;;;;;16.39;58.34;99776.25;2087722;28;19933;-56
2022/03/16 04:18:41;;;;;;;;;;;;;;;16.38;58.37;99783.44;2091583;28;20431;-54
2022/03/16 04:19:42;;;;;;;;;;;;;;;16.37;58.41;99783.59;2092033;28;19932;-55
2022/03/16 04:20:43;;;;;;;;;;;;;;;16.36;58.52;99782.75;2092355;28;19929;-55
2022/03/16 04:21:45;;;;;;;;;;;;;;;16.37;58.43;99786.28;2093148;28;19925;-60
2022/03/16 04:22:45;;;;;;;;;;;;;;;16.37;58.53;99783.59;2094114;28;19925;-54
2022/03/16 04:23:47;;;;;;;;;;;;;;;16.36;58.35;99776.56;2093200;28;20264;-58
2022/03/16 04:24:47;;;;;;;;;;;;;;;16.36;58.49;99768.53;2090993;28;19924;-57
2022/03/16 04:25:50;;;;;;;;;;;;;;;16.36;58.44;99785.44;2089373;28;19946;-61
2022/03/16 04:26:51;;;;;;;;;;;;;;;16.36;58.50;99781.94;2091255;28;19928;-62
2022/03/16 04:27:52;;;;;;;;;;;;;;;16.35;58.37;99780.22;2095191;28;19928;-59
2022/03/16 04:28:53;;;;;;;;;;;;;;;16.34;58.46;99786.59;2091780;28;19924;-58
2022/03/16 04:29:55;;;;;;;;;;;;;;;16.34;58.43;99782.09;2091071;28;20380;-58
2022/03/16 04:30:55;;;;;;;;;;;;;;;16.34;58.36;99781.25;2089920;28;20031;-57
2022/03/16 04:31:58;;;;;;;;;;;;;;;16.33;58.43;99776.91;2089622;28;19932;-56
2022/03/16 04:32:58;;;;;;;;;;;;;;;16.33;58.42;99774.22;2090876;28;19936;-52
2022/03/16 04:34:00;;;;;;;;;;;;;;;16.33;58.39;99776.91;2089035;28;19932;-55
2022/03/16 04:35:00;;;;;;;;;;;;;;;16.33;58.43;99779.59;2090549;28;19924;-53
2022/03/16 04:36:02;;;;;;;;;;;;;;;16.31;58.46;99783.25;2088359;28;19929;-57
2022/03/16 04:37:04;;;;;;;;;;;;;;;16.31;58.48;99780.56;2086383;28;19928;-57
2022/03/16 04:38:04;;;;;;;;;;;;;;;16.33;58.48;99782.25;2091520;28;19924;-58
2022/03/16 04:39:06;;;;;;;;;;;;;;;16.30;58.30;99773.53;2091927;28;20086;-51
2022/03/16 04:40:07;;;;;;;;;;;;;;;16.30;58.41;99773.53;2089532;28;19940;-52
2022/03/16 04:41:10;;;;;;;;;;;;;;;16.29;58.43;99785.22;2090324;28;19924;-55
2022/03/16 04:42:10;;;;;;;;;;;;;;;16.30;58.48;99778.06;2091674;28;20075;-56
2022/03/16 04:43:12;;;;;;;;;;;;;;;16.29;58.40;99774.53;2089706;28;19958;-56
2022/03/16 04:44:13;;;;;;;;;;;;;;;16.28;58.47;99764.81;2091365;28;19929;-57
2022/03/16 04:45:14;;;;;;;;;;;;;;;16.29;58.49;99771.00;2086349;28;20253;-57
2022/03/16 04:46:15;;;;;;;;;;;;;;;16.28;58.44;99774.69;2088562;28;20011;-56
2022/03/16 04:47:17;;;;;;;;;;;;;;;16.28;58.48;99767.50;2091651;28;19924;-54
2022/03/16 04:48:17;;;;;;;;;;;;;;;16.27;58.49;99768.50;2091200;28;19928;-57
2022/03/16 04:49:19;;;;;;;;;;;;;;;16.27;58.49;99771.19;2090110;28;20011;-58
2022/03/16 04:50:19;;;;;;;;;;;;;;;16.27;58.40;99767.69;2089393;28;19939;-55
2022/03/16 04:51:21;;;;;;;;;;;;;;;16.26;58.50;99763.31;2091531;28;20371;-54
2022/03/16 04:52:21;;;;;;;;;;;;;;;16.26;58.47;99755.28;2089674;28;20360;-56
2022/03/16 04:53:23;;;;;;;;;;;;;;;16.27;58.44;99762.31;2091476;28;19925;-58
2022/03/16 04:54:23;;;;;;;;;;;;;;;16.27;58.57;99765.00;2082604;28;20328;-57
2022/03/16 04:55:25;;;;;;;;;;;;;;;16.25;58.52;99764.31;2091538;28;19967;-56
2022/03/16 04:56:28;;;;;;;;;;;;;;;16.24;58.54;99757.25;2091570;28;19932;-55
2022/03/16 04:57:29;;;;;;;;;;;;;;;16.24;58.54;99757.25;2090277;28;19929;-51
2022/03/16 04:58:31;;;;;;;;;;;;;;;16.23;58.60;99751.06;2090188;28;20002;-58
2022/03/16 04:59:32;;;;;;;;;;;;;;;16.22;58.58;99760.13;2090055;28;20024;-52
2022/03/16 05:00:34;;;;;;;;;;;;;;;16.23;58.65;99756.44;2088174;28;20433;-57
2022/03/16 05:01:34;;;;;;;;;;;;;;;16.22;58.55;99765.47;2091497;28;20302;-54
2022/03/16 05:02:36;;;;;;;;;;;;;;;16.22;58.59;99760.13;2088334;28;19924;-53
2022/03/16 05:03:37;;;;;;;;;;;;;;;16.21;58.42;99758.41;2085933;28;19928;-53
2022/03/16 05:04:39;;;;;;;;;;;;;;;16.21;58.57;99747.72;2090489;28;20223;-58
2022/03/16 05:05:39;;;;;;;;;;;;;;;16.20;58.53;99756.75;2099042;27;19924;-60
2022/03/16 05:06:41;;;;;;;;;;;;;;;16.20;58.68;99759.44;2097416;28;19936;-53
2022/03/16 05:07:41;;;;;;;;;;;;;;;16.19;58.53;99760.44;2096667;27;19936;-52
2022/03/16 05:08:45;;;;;;;;;;;;;;;16.19;58.59;99765.78;2091029;28;19929;-58
2022/03/16 05:09:46;;;;;;;;;;;;;;;16.20;58.57;99755.91;2096182;28;19928;-58
2022/03/16 05:10:48;;;;;;;;;;;;;;;16.20;58.57;99756.75;2091012;28;19939;-60
2022/03/16 05:11:50;;;;;;;;;;;;;;;16.20;58.76;99761.28;2098632;28;19931;-55
2022/03/16 05:12:51;;;;;;;;;;;;;;;16.19;58.54;99755.09;2100251;28;19924;-58
2022/03/16 05:13:52;;;;;;;;;;;;;;;16.19;58.59;99755.09;2097423;28;20009;-54
2022/03/16 05:14:53;;;;;;;;;;;;;;;16.18;58.53;99764.09;2099478;28;19936;-55
2022/03/16 05:15:54;;;;;;;;;;;;;;;16.19;58.76;99763.13;2098914;28;20019;-58
2022/03/16 05:16:55;;;;;;;;;;;;;;;16.16;58.47;99766.13;2097479;28;20380;-49
2022/03/16 05:17:56;;;;;;;;;;;;;;;16.18;58.68;99771.28;2099739;28;20450;-54
2022/03/16 05:18:57;;;;;;;;;;;;;;;16.16;58.61;99766.13;2100010;28;19924;-53